createdAt,value
2022-11-15T00:02:52.022Z,19.1
2022-11-15T00:07:57.005Z,20.4
2022-11-15T00:12:59.379Z,19.4
2022-11-15T00:18:01.370Z,18.9
2022-11-15T00:23:03.343Z,19.3
2022-11-15T00:28:05.769Z,19.5
2022-11-15T00:33:08.139Z,20.1
2022-11-15T00:38:10.246Z,20
2022-11-15T00:43:12.557Z,19.5
2022-11-15T00:48:15.128Z,19.5
2022-11-15T00:53:17.126Z,19.4
2022-11-15T00:58:19.289Z,19.8
2022-11-15T01:03:21.244Z,18.4
2022-11-15T01:08:23.285Z,17.9
2022-11-15T01:13:25.301Z,16.6
2022-11-15T01:18:27.332Z,15.7
2022-11-15T01:23:29.888Z,15.4
2022-11-15T01:28:33.383Z,15.2
2022-11-15T01:33:35.383Z,14.3
2022-11-15T01:38:37.471Z,14
2022-11-15T01:43:39.834Z,13.6
2022-11-15T01:48:41.924Z,13.3
2022-11-15T01:53:43.921Z,13.7
2022-11-15T01:58:45.891Z,12.5
2022-11-15T02:03:47.904Z,12.5
2022-11-15T02:08:49.945Z,11.7
2022-11-15T02:13:52.228Z,12
2022-11-15T02:18:54.223Z,12.4
2022-11-15T02:23:56.224Z,12.3
2022-11-15T02:28:58.369Z,12.2
2022-11-15T02:34:00.362Z,12
2022-11-15T02:39:02.372Z,12.2
2022-11-15T02:44:05.254Z,12.2
2022-11-15T02:49:07.621Z,12.1
2022-11-15T02:54:09.680Z,11.5
2022-11-15T02:59:11.813Z,11.4
2022-11-15T03:04:14.029Z,11.6
2022-11-15T03:09:19.068Z,12
2022-11-15T03:14:21.351Z,11.7
2022-11-15T03:19:23.573Z,12.4
2022-11-15T03:24:27.009Z,12.7
2022-11-15T03:29:29.473Z,13.1
2022-11-15T03:34:31.744Z,13
2022-11-15T03:39:33.809Z,13.5
2022-11-15T03:44:35.920Z,14.1
2022-11-15T03:49:38.051Z,14.5
2022-11-15T03:54:40.072Z,13.9
2022-11-15T03:59:42.480Z,14.4
2022-11-15T04:04:44.652Z,14.9
2022-11-15T04:09:46.712Z,15.5
2022-11-15T04:14:48.871Z,16.4
2022-11-15T04:19:50.897Z,16.5
2022-11-15T04:24:52.962Z,17.1
2022-11-15T04:29:55.479Z,16.8
2022-11-15T04:34:57.821Z,16.9
2022-11-15T04:39:59.877Z,16.5
2022-11-15T04:45:02.263Z,17.2
2022-11-15T04:50:04.457Z,16.3
2022-11-15T04:55:09.194Z,17.5
2022-11-15T05:00:11.846Z,17.9
2022-11-15T05:05:14.161Z,24.6
2022-11-15T05:10:16.273Z,18.4
2022-11-15T05:15:18.730Z,18.3
2022-11-15T05:20:20.914Z,19.6
2022-11-15T05:25:22.865Z,19.3
2022-11-15T05:30:25.055Z,18.7
2022-11-15T05:35:27.134Z,19.3
2022-11-15T05:40:29.150Z,19
2022-11-15T05:45:31.246Z,19.6
2022-11-15T05:50:33.453Z,20.6
2022-11-15T05:55:35.564Z,20.5
2022-11-15T06:00:37.643Z,20.7
2022-11-15T06:05:39.674Z,19.3
2022-11-15T06:10:41.684Z,20.6
2022-11-15T06:30:54.129Z,18.8
2022-11-15T06:35:56.286Z,19.9
2022-11-15T06:40:58.532Z,19.1
2022-11-15T06:46:00.824Z,19.8
2022-11-15T06:51:03.065Z,19.6
2022-11-15T06:56:05.253Z,19.3
2022-11-15T07:01:07.729Z,20.1
2022-11-15T07:06:09.959Z,20.3
2022-11-15T07:11:12.083Z,20.8
2022-11-15T07:16:14.601Z,19.7
2022-11-15T07:21:16.961Z,19.7
2022-11-15T07:26:21.914Z,19.4
2022-11-15T07:31:24.791Z,19.7
2022-11-15T07:36:26.787Z,20.2
2022-11-15T07:41:28.751Z,28.6
2022-11-15T07:46:29.850Z,19.4
2022-11-15T07:51:32.263Z,18.9
2022-11-15T07:56:34.228Z,18.5
2022-11-15T08:01:36.884Z,18.5
2022-11-15T08:06:40.512Z,18.1
2022-11-15T08:11:42.820Z,18.2
2022-11-15T08:16:44.978Z,23.7
2022-11-15T08:21:47.035Z,16.3
2022-11-15T08:26:49.136Z,16.2
2022-11-15T08:31:51.839Z,15.6
2022-11-15T08:36:54.053Z,16
2022-11-15T08:41:56.044Z,15.7
2022-11-15T08:46:58.474Z,15
2022-11-15T08:52:01.003Z,14.4
2022-11-15T08:57:03.206Z,15.2
2022-11-15T09:02:05.613Z,15.3
2022-11-15T09:07:08.110Z,19
2022-11-15T09:12:10.605Z,16.3
2022-11-15T09:17:13.189Z,14.8
2022-11-15T09:22:17.645Z,15.1
2022-11-15T09:27:19.573Z,15.3
2022-11-15T09:32:21.577Z,16.5
2022-11-15T09:37:23.618Z,17.8
2022-11-15T09:42:25.656Z,17.5
2022-11-15T09:47:27.881Z,18.1
2022-11-15T09:52:30.414Z,44.2
2022-11-15T09:57:32.441Z,18.4
2022-11-15T10:02:34.566Z,18.8
2022-11-15T10:07:36.597Z,18.4
2022-11-15T10:12:38.821Z,19.6
2022-11-15T10:17:41.001Z,18.7
2022-11-15T10:22:43.128Z,17.5
2022-11-15T10:27:45.018Z,17.7
2022-11-15T10:32:47.313Z,17.6
2022-11-15T10:37:49.392Z,17.5
2022-11-15T10:42:51.576Z,19
2022-11-15T10:47:53.564Z,20
2022-11-15T10:52:55.843Z,22.6
2022-11-15T10:57:58.514Z,22
2022-11-15T11:03:00.781Z,23.1
2022-11-15T11:08:02.893Z,24.7
2022-11-15T11:13:05.152Z,24.9
2022-11-15T11:18:07.249Z,26.3
2022-11-15T11:23:09.619Z,26.4
2022-11-15T11:28:12.016Z,27.7
2022-11-15T11:33:14.121Z,27.4
2022-11-15T11:38:17.226Z,28.2
2022-11-15T11:43:19.324Z,28.7
2022-11-15T11:48:21.341Z,29.8
2022-11-15T11:53:23.568Z,30.8
2022-11-15T11:58:25.873Z,31.2
2022-11-15T12:03:28.177Z,31.2
2022-11-15T12:08:31.359Z,32.6
2022-11-15T12:13:34.793Z,31.7
2022-11-15T12:18:36.832Z,31
2022-11-15T12:23:38.892Z,31.1
2022-11-15T12:29:07.273Z,29.7
2022-11-15T12:33:50.768Z,27.6
2022-11-15T12:38:52.835Z,29
2022-11-15T12:43:54.973Z,30.5
2022-11-15T12:48:57.272Z,28.8
2022-11-15T12:53:59.601Z,29.1
2022-11-15T12:59:01.668Z,31.3
2022-11-15T13:04:03.637Z,30.9
2022-11-15T13:09:05.782Z,28.8
2022-11-15T13:14:07.877Z,29.2
2022-11-15T13:19:10.227Z,29.8
2022-11-15T13:24:12.987Z,28.5
2022-11-15T13:29:15.045Z,29.9
2022-11-15T13:34:51.350Z,31.6
2022-11-15T13:39:24.649Z,32.6
2022-11-15T13:44:26.694Z,30.8
2022-11-15T13:49:28.722Z,34.4
2022-11-15T13:54:31.170Z,32.3
2022-11-15T13:59:33.236Z,33.5
2022-11-15T14:04:35.275Z,32.7
2022-11-15T14:09:37.504Z,33.9
2022-11-15T14:14:39.604Z,32.3
2022-11-15T14:19:41.912Z,34.9
2022-11-15T14:24:44.007Z,38.3
2022-11-15T14:29:45.983Z,36.4
2022-11-15T14:34:48.173Z,37.5
2022-11-15T14:39:50.583Z,38.1
2022-11-15T14:44:52.654Z,37.4
2022-11-15T14:49:54.595Z,38
2022-11-15T14:54:56.827Z,39.3
2022-11-15T14:59:58.954Z,38.9
2022-11-15T15:05:01.081Z,40.2
2022-11-15T15:10:40.875Z,41.7
2022-11-15T15:15:04.274Z,40
2022-11-15T15:20:06.447Z,40.7
2022-11-15T15:25:08.580Z,39.7
2022-11-15T15:30:10.957Z,41
2022-11-15T15:35:13.208Z,39.6
2022-11-15T15:40:15.246Z,41.3
2022-11-15T15:45:17.354Z,40.3
2022-11-15T15:50:19.393Z,40.2
2022-11-15T15:55:21.677Z,40.8
2022-11-15T16:00:23.759Z,41.4
2022-11-15T16:05:26.578Z,41.3
2022-11-15T16:10:28.752Z,44.6
2022-11-15T16:15:31.359Z,44.6
2022-11-15T16:20:33.769Z,45.2
2022-11-15T16:30:38.460Z,42.1
2022-11-15T16:35:40.513Z,43.7
2022-11-15T16:40:42.721Z,44
2022-11-15T16:45:44.832Z,44.3
2022-11-15T16:50:47.012Z,41.6
2022-11-15T16:55:49.153Z,56.2
2022-11-15T17:00:51.342Z,45.9
2022-11-15T17:05:53.582Z,42.4
2022-11-15T17:10:55.836Z,42.1
2022-11-15T17:15:58.476Z,40.3
2022-11-15T17:21:01.036Z,42
2022-11-15T17:26:29.850Z,40.8
2022-11-15T17:31:11.238Z,101.1
2022-11-15T17:36:13.320Z,41.3
2022-11-15T17:41:15.431Z,37.9
2022-11-15T17:46:17.400Z,39.6
2022-11-15T17:51:19.519Z,37.8
2022-11-15T17:56:21.953Z,36
2022-11-15T18:01:24.273Z,38.6
2022-11-15T18:06:26.602Z,37.9
2022-11-15T18:11:28.645Z,38.2
2022-11-15T18:16:30.727Z,39.9
2022-11-15T18:21:32.857Z,38.2
2022-11-15T18:26:34.923Z,39.1
2022-11-15T18:31:36.930Z,39.6
2022-11-15T18:36:41.873Z,39.2
2022-11-15T18:41:44.047Z,38
2022-11-15T18:46:46.284Z,40
2022-11-15T18:51:48.282Z,41.7
2022-11-15T18:56:50.510Z,43.1
2022-11-15T19:01:52.571Z,46.5
2022-11-15T19:06:54.731Z,45.7
2022-11-15T19:11:57.066Z,44.2
2022-11-15T19:16:59.219Z,44.9
2022-11-15T19:22:01.302Z,49.4
2022-11-15T19:27:03.535Z,49.1
2022-11-15T19:32:05.774Z,47.4
2022-11-15T19:37:07.984Z,46.5
2022-11-15T19:42:10.313Z,47.9
2022-11-15T19:47:12.363Z,48.2
2022-11-15T19:52:14.570Z,48
2022-11-15T19:57:16.880Z,50.1
2022-11-15T20:02:23.175Z,50.3
2022-11-15T20:07:25.766Z,48.7
2022-11-15T20:12:28.326Z,50.3
2022-11-15T20:17:30.348Z,48.9
2022-11-15T20:22:32.689Z,47.6
2022-11-15T20:27:34.833Z,49.9
2022-11-15T20:38:00.596Z,49.3
2022-11-15T20:42:48.858Z,48.4
2022-11-15T20:47:50.902Z,48.1
2022-11-15T20:52:53.985Z,46.2
2022-11-15T20:57:56.895Z,49.7
2022-11-15T21:02:58.914Z,45.6
2022-11-15T21:08:01.133Z,49.2
2022-11-15T21:13:03.566Z,48.4
2022-11-15T21:18:05.869Z,72.1
2022-11-15T21:23:06.360Z,45.1
2022-11-15T21:28:08.376Z,52.2
2022-11-15T21:33:10.575Z,45.7
2022-11-15T21:38:13.009Z,49.7
2022-11-15T21:43:14.966Z,48.7
2022-11-15T21:48:17.406Z,49.1
2022-11-15T21:53:19.779Z,50.6
2022-11-15T21:58:22.154Z,49.1
2022-11-15T22:03:24.202Z,49.4
2022-11-15T22:08:26.321Z,48.2
2022-11-15T22:13:28.408Z,50.1
2022-11-15T22:18:30.417Z,48.9
2022-11-15T22:23:32.831Z,49.9
2022-11-15T22:28:35.526Z,52.8
2022-11-15T22:33:38.457Z,51.6
2022-11-15T22:38:40.468Z,50.5
2022-11-15T22:43:42.482Z,54.2
2022-11-15T22:48:44.590Z,52.9
2022-11-15T22:53:46.662Z,51.7
2022-11-15T22:58:48.755Z,54
2022-11-15T23:03:50.906Z,57.4
2022-11-15T23:08:53.253Z,53.1
2022-11-15T23:13:55.277Z,48.3
2022-11-15T23:18:57.375Z,44.9
2022-11-15T23:23:59.437Z,43.6
2022-11-15T23:29:01.416Z,42.2
2022-11-15T23:34:03.414Z,44
2022-11-15T23:39:05.428Z,41.1
2022-11-15T23:44:07.641Z,42.1
2022-11-15T23:49:09.720Z,41.8
2022-11-15T23:54:11.668Z,43.4
2022-11-15T23:59:13.867Z,46.8
